sensor_id;sensor_type;location;lat;lon;timestamp;P1;durP1;ratioP1;P2;durP2;ratioP2
3259;SDS011;22469;48.150;14.004;2023-03-14T00:02:14;22.20;;;15.30;;
3259;SDS011;22469;48.150;14.004;2023-03-14T00:04:41;16.50;;;14.67;;
3259;SDS011;22469;48.150;14.004;2023-03-14T00:07:10;15.90;;;14.20;;
3259;SDS011;22469;48.150;14.004;2023-03-14T00:09:39;16.13;;;14.43;;
3259;SDS011;22469;48.150;14.004;2023-03-14T00:12:08;17.73;;;14.87;;
3259;SDS011;22469;48.150;14.004;2023-03-14T00:14:35;16.63;;;14.97;;
3259;SDS011;22469;48.150;14.004;2023-03-14T00:17:02;17.97;;;16.03;;
3259;SDS011;22469;48.150;14.004;2023-03-14T00:19:30;17.43;;;15.23;;
3259;SDS011;22469;48.150;14.004;2023-03-14T00:21:57;20.20;;;16.23;;
3259;SDS011;22469;48.150;14.004;2023-03-14T00:24:24;19.50;;;13.67;;
3259;SDS011;22469;48.150;14.004;2023-03-14T00:26:51;20.03;;;16.50;;
3259;SDS011;22469;48.150;14.004;2023-03-14T00:29:18;18.37;;;16.50;;
3259;SDS011;22469;48.150;14.004;2023-03-14T00:31:45;18.30;;;16.40;;
3259;SDS011;22469;48.150;14.004;2023-03-14T00:34:12;18.27;;;16.20;;
3259;SDS011;22469;48.150;14.004;2023-03-14T00:36:39;17.67;;;12.10;;
3259;SDS011;22469;48.150;14.004;2023-03-14T00:39:06;15.27;;;12.60;;
3259;SDS011;22469;48.150;14.004;2023-03-14T00:41:33;19.43;;;13.90;;
3259;SDS011;22469;48.150;14.004;2023-03-14T00:44:00;31.10;;;17.10;;
3259;SDS011;22469;48.150;14.004;2023-03-14T00:46:27;17.37;;;13.80;;
3259;SDS011;22469;48.150;14.004;2023-03-14T00:48:55;22.50;;;16.10;;
3259;SDS011;22469;48.150;14.004;2023-03-14T00:51:22;15.23;;;13.63;;
3259;SDS011;22469;48.150;14.004;2023-03-14T00:53:49;15.53;;;13.93;;
3259;SDS011;22469;48.150;14.004;2023-03-14T00:56:18;15.70;;;14.03;;
3259;SDS011;22469;48.150;14.004;2023-03-14T00:58:45;17.10;;;14.80;;
3259;SDS011;22469;48.150;14.004;2023-03-14T01:01:16;14.53;;;13.07;;
3259;SDS011;22469;48.150;14.004;2023-03-14T01:03:45;15.10;;;13.33;;
3259;SDS011;22469;48.150;14.004;2023-03-14T01:06:14;19.83;;;13.70;;
3259;SDS011;22469;48.150;14.004;2023-03-14T01:08:44;16.10;;;13.20;;
3259;SDS011;22469;48.150;14.004;2023-03-14T01:11:13;16.67;;;13.00;;
3259;SDS011;22469;48.150;14.004;2023-03-14T01:13:44;16.17;;;12.47;;
3259;SDS011;22469;48.150;14.004;2023-03-14T01:16:12;13.97;;;10.77;;
3259;SDS011;22469;48.150;14.004;2023-03-14T01:18:41;12.50;;;10.30;;
3259;SDS011;22469;48.150;14.004;2023-03-14T01:23:45;11.77;;;10.57;;
3259;SDS011;22469;48.150;14.004;2023-03-14T01:26:15;13.30;;;11.80;;
3259;SDS011;22469;48.150;14.004;2023-03-14T01:28:45;12.10;;;10.83;;
3259;SDS011;22469;48.150;14.004;2023-03-14T01:31:14;14.60;;;11.33;;
3259;SDS011;22469;48.150;14.004;2023-03-14T01:33:41;11.10;;;10.00;;
3259;SDS011;22469;48.150;14.004;2023-03-14T01:36:09;11.90;;;10.10;;
3259;SDS011;22469;48.150;14.004;2023-03-14T01:38:38;9.93;;;9.13;;
3259;SDS011;22469;48.150;14.004;2023-03-14T01:41:07;11.50;;;10.40;;
3259;SDS011;22469;48.150;14.004;2023-03-14T01:43:40;18.87;;;11.00;;
3259;SDS011;22469;48.150;14.004;2023-03-14T01:48:36;18.93;;;8.97;;
3259;SDS011;22469;48.150;14.004;2023-03-14T01:51:06;11.30;;;10.20;;
3259;SDS011;22469;48.150;14.004;2023-03-14T01:53:48;11.27;;;8.10;;
3259;SDS011;22469;48.150;14.004;2023-03-14T01:56:17;9.53;;;8.23;;
3259;SDS011;22469;48.150;14.004;2023-03-14T01:58:46;9.40;;;8.50;;
3259;SDS011;22469;48.150;14.004;2023-03-14T02:01:18;9.67;;;8.70;;
3259;SDS011;22469;48.150;14.004;2023-03-14T02:03:55;8.30;;;7.50;;
3259;SDS011;22469;48.150;14.004;2023-03-14T02:06:29;9.30;;;7.73;;
3259;SDS011;22469;48.150;14.004;2023-03-14T02:09:05;11.20;;;6.73;;
3259;SDS011;22469;48.150;14.004;2023-03-14T02:11:32;8.77;;;7.90;;
3259;SDS011;22469;48.150;14.004;2023-03-14T02:14:00;7.70;;;7.00;;
3259;SDS011;22469;48.150;14.004;2023-03-14T02:16:28;8.43;;;7.53;;
3259;SDS011;22469;48.150;14.004;2023-03-14T02:18:55;10.00;;;7.20;;
3259;SDS011;22469;48.150;14.004;2023-03-14T02:21:42;7.27;;;6.73;;
3259;SDS011;22469;48.150;14.004;2023-03-14T02:24:19;8.03;;;7.33;;
3259;SDS011;22469;48.150;14.004;2023-03-14T02:27:36;7.63;;;6.90;;
3259;SDS011;22469;48.150;14.004;2023-03-14T02:30:17;7.23;;;6.60;;
3259;SDS011;22469;48.150;14.004;2023-03-14T02:32:48;6.23;;;5.83;;
3259;SDS011;22469;48.150;14.004;2023-03-14T02:35:44;9.43;;;6.00;;
3259;SDS011;22469;48.150;14.004;2023-03-14T02:41:14;6.63;;;6.03;;
3259;SDS011;22469;48.150;14.004;2023-03-14T02:43:41;5.90;;;5.40;;
3259;SDS011;22469;48.150;14.004;2023-03-14T02:46:12;5.73;;;5.33;;
3259;SDS011;22469;48.150;14.004;2023-03-14T02:48:53;5.53;;;5.07;;
3259;SDS011;22469;48.150;14.004;2023-03-14T02:51:25;5.20;;;4.83;;
3259;SDS011;22469;48.150;14.004;2023-03-14T02:53:53;5.00;;;4.63;;
3259;SDS011;22469;48.150;14.004;2023-03-14T02:56:21;8.90;;;4.50;;
3259;SDS011;22469;48.150;14.004;2023-03-14T02:58:48;4.90;;;4.50;;
3259;SDS011;22469;48.150;14.004;2023-03-14T03:01:15;5.30;;;5.00;;
3259;SDS011;22469;48.150;14.004;2023-03-14T03:03:42;10.40;;;5.03;;
3259;SDS011;22469;48.150;14.004;2023-03-14T03:06:09;4.70;;;4.40;;
3259;SDS011;22469;48.150;14.004;2023-03-14T03:08:36;4.40;;;4.10;;
3259;SDS011;22469;48.150;14.004;2023-03-14T03:11:03;6.80;;;4.80;;
3259;SDS011;22469;48.150;14.004;2023-03-14T03:13:31;4.60;;;3.97;;
3259;SDS011;22469;48.150;14.004;2023-03-14T03:15:58;8.10;;;4.67;;
3259;SDS011;22469;48.150;14.004;2023-03-14T03:18:25;4.97;;;4.50;;
3259;SDS011;22469;48.150;14.004;2023-03-14T03:20:52;4.30;;;4.03;;
3259;SDS011;22469;48.150;14.004;2023-03-14T03:23:19;5.57;;;3.63;;
3259;SDS011;22469;48.150;14.004;2023-03-14T03:25:49;4.90;;;4.60;;
3259;SDS011;22469;48.150;14.004;2023-03-14T03:28:18;4.97;;;4.57;;
3259;SDS011;22469;48.150;14.004;2023-03-14T03:30:45;4.23;;;3.80;;
3259;SDS011;22469;48.150;14.004;2023-03-14T03:33:13;5.13;;;4.70;;
3259;SDS011;22469;48.150;14.004;2023-03-14T03:35:42;3.80;;;3.60;;
3259;SDS011;22469;48.150;14.004;2023-03-14T03:38:16;3.83;;;3.53;;
3259;SDS011;22469;48.150;14.004;2023-03-14T03:40:43;4.53;;;4.13;;
3259;SDS011;22469;48.150;14.004;2023-03-14T03:43:10;3.20;;;3.00;;
3259;SDS011;22469;48.150;14.004;2023-03-14T03:45:37;4.07;;;3.87;;
3259;SDS011;22469;48.150;14.004;2023-03-14T03:48:04;4.30;;;4.10;;
3259;SDS011;22469;48.150;14.004;2023-03-14T03:50:32;3.90;;;3.60;;
3259;SDS011;22469;48.150;14.004;2023-03-14T03:52:59;3.80;;;3.50;;
3259;SDS011;22469;48.150;14.004;2023-03-14T03:55:26;4.20;;;3.90;;
3259;SDS011;22469;48.150;14.004;2023-03-14T03:57:54;4.20;;;3.60;;
3259;SDS011;22469;48.150;14.004;2023-03-14T04:00:21;3.40;;;3.20;;
3259;SDS011;22469;48.150;14.004;2023-03-14T04:02:48;3.33;;;3.13;;
3259;SDS011;22469;48.150;14.004;2023-03-14T04:05:16;10.13;;;3.67;;
3259;SDS011;22469;48.150;14.004;2023-03-14T04:07:43;2.90;;;2.80;;
3259;SDS011;22469;48.150;14.004;2023-03-14T04:10:10;3.00;;;2.90;;
3259;SDS011;22469;48.150;14.004;2023-03-14T04:12:37;3.67;;;3.47;;
3259;SDS011;22469;48.150;14.004;2023-03-14T04:15:05;3.33;;;3.10;;
3259;SDS011;22469;48.150;14.004;2023-03-14T04:17:33;3.70;;;3.40;;
3259;SDS011;22469;48.150;14.004;2023-03-14T04:20:00;4.30;;;3.90;;
3259;SDS011;22469;48.150;14.004;2023-03-14T04:22:27;4.07;;;3.53;;
3259;SDS011;22469;48.150;14.004;2023-03-14T04:24:54;5.20;;;2.50;;
3259;SDS011;22469;48.150;14.004;2023-03-14T04:27:21;2.30;;;2.10;;
3259;SDS011;22469;48.150;14.004;2023-03-14T04:29:48;1.60;;;1.50;;
3259;SDS011;22469;48.150;14.004;2023-03-14T04:32:15;1.30;;;1.20;;
3259;SDS011;22469;48.150;14.004;2023-03-14T04:34:42;1.20;;;1.20;;
3259;SDS011;22469;48.150;14.004;2023-03-14T04:37:09;1.17;;;1.07;;
3259;SDS011;22469;48.150;14.004;2023-03-14T04:39:36;0.93;;;0.93;;
3259;SDS011;22469;48.150;14.004;2023-03-14T04:42:03;1.30;;;1.30;;
3259;SDS011;22469;48.150;14.004;2023-03-14T04:44:30;3.53;;;1.40;;
3259;SDS011;22469;48.150;14.004;2023-03-14T04:46:57;1.47;;;1.37;;
3259;SDS011;22469;48.150;14.004;2023-03-14T04:49:25;1.43;;;1.33;;
3259;SDS011;22469;48.150;14.004;2023-03-14T04:51:51;0.93;;;0.93;;
3259;SDS011;22469;48.150;14.004;2023-03-14T04:54:19;0.83;;;0.70;;
3259;SDS011;22469;48.150;14.004;2023-03-14T04:56:46;0.70;;;0.70;;
3259;SDS011;22469;48.150;14.004;2023-03-14T04:59:13;1.03;;;1.03;;
3259;SDS011;22469;48.150;14.004;2023-03-14T05:01:40;0.97;;;0.97;;
3259;SDS011;22469;48.150;14.004;2023-03-14T05:04:07;0.83;;;0.83;;
3259;SDS011;22469;48.150;14.004;2023-03-14T05:06:34;0.80;;;0.80;;
3259;SDS011;22469;48.150;14.004;2023-03-14T05:09:01;0.80;;;0.80;;
3259;SDS011;22469;48.150;14.004;2023-03-14T05:11:30;2.47;;;1.37;;
3259;SDS011;22469;48.150;14.004;2023-03-14T05:13:59;2.90;;;1.60;;
3259;SDS011;22469;48.150;14.004;2023-03-14T05:16:26;1.27;;;1.27;;
3259;SDS011;22469;48.150;14.004;2023-03-14T05:18:53;1.57;;;1.20;;
3259;SDS011;22469;48.150;14.004;2023-03-14T05:21:20;1.50;;;1.40;;
3259;SDS011;22469;48.150;14.004;2023-03-14T05:23:47;1.30;;;1.20;;
3259;SDS011;22469;48.150;14.004;2023-03-14T05:26:14;1.27;;;1.20;;
3259;SDS011;22469;48.150;14.004;2023-03-14T05:28:43;1.20;;;1.20;;
3259;SDS011;22469;48.150;14.004;2023-03-14T05:31:10;1.73;;;1.47;;
3259;SDS011;22469;48.150;14.004;2023-03-14T05:33:37;1.50;;;1.40;;
3259;SDS011;22469;48.150;14.004;2023-03-14T05:36:04;1.30;;;1.30;;
3259;SDS011;22469;48.150;14.004;2023-03-14T05:38:32;1.90;;;1.50;;
3259;SDS011;22469;48.150;14.004;2023-03-14T05:41:00;2.07;;;1.80;;
3259;SDS011;22469;48.150;14.004;2023-03-14T05:43:27;2.27;;;2.07;;
3259;SDS011;22469;48.150;14.004;2023-03-14T05:45:54;2.00;;;1.93;;
3259;SDS011;22469;48.150;14.004;2023-03-14T05:48:21;1.87;;;1.77;;
3259;SDS011;22469;48.150;14.004;2023-03-14T05:50:48;1.77;;;1.67;;
3259;SDS011;22469;48.150;14.004;2023-03-14T05:53:21;2.07;;;1.97;;
3259;SDS011;22469;48.150;14.004;2023-03-14T05:55:50;1.30;;;1.30;;
3259;SDS011;22469;48.150;14.004;2023-03-14T05:58:23;2.23;;;1.90;;
3259;SDS011;22469;48.150;14.004;2023-03-14T06:00:50;1.90;;;1.80;;
3259;SDS011;22469;48.150;14.004;2023-03-14T06:03:18;2.03;;;1.90;;
3259;SDS011;22469;48.150;14.004;2023-03-14T06:05:45;2.27;;;2.17;;
3259;SDS011;22469;48.150;14.004;2023-03-14T06:08:12;2.27;;;2.07;;
3259;SDS011;22469;48.150;14.004;2023-03-14T06:10:42;1.73;;;1.63;;
3259;SDS011;22469;48.150;14.004;2023-03-14T06:13:09;2.33;;;1.23;;
3259;SDS011;22469;48.150;14.004;2023-03-14T06:15:36;1.60;;;1.50;;
3259;SDS011;22469;48.150;14.004;2023-03-14T06:18:03;1.13;;;1.00;;
3259;SDS011;22469;48.150;14.004;2023-03-14T06:20:30;1.47;;;1.07;;
3259;SDS011;22469;48.150;14.004;2023-03-14T06:22:57;1.30;;;1.20;;
3259;SDS011;22469;48.150;14.004;2023-03-14T06:25:24;1.20;;;1.20;;
3259;SDS011;22469;48.150;14.004;2023-03-14T06:27:51;1.20;;;1.20;;
3259;SDS011;22469;48.150;14.004;2023-03-14T06:30:18;1.50;;;1.10;;
3259;SDS011;22469;48.150;14.004;2023-03-14T06:32:45;1.80;;;1.40;;
3259;SDS011;22469;48.150;14.004;2023-03-14T06:35:12;1.70;;;1.33;;
3259;SDS011;22469;48.150;14.004;2023-03-14T06:37:39;1.20;;;1.20;;
3259;SDS011;22469;48.150;14.004;2023-03-14T06:40:08;1.43;;;1.33;;
3259;SDS011;22469;48.150;14.004;2023-03-14T06:42:37;3.27;;;1.37;;
3259;SDS011;22469;48.150;14.004;2023-03-14T06:45:04;1.80;;;1.00;;
3259;SDS011;22469;48.150;14.004;2023-03-14T06:47:32;2.03;;;1.30;;
3259;SDS011;22469;48.150;14.004;2023-03-14T06:49:59;1.33;;;1.00;;
3259;SDS011;22469;48.150;14.004;2023-03-14T06:52:26;2.20;;;1.00;;
3259;SDS011;22469;48.150;14.004;2023-03-14T06:54:53;1.37;;;1.27;;
3259;SDS011;22469;48.150;14.004;2023-03-14T06:57:20;1.43;;;1.33;;
3259;SDS011;22469;48.150;14.004;2023-03-14T06:59:47;0.90;;;0.90;;
3259;SDS011;22469;48.150;14.004;2023-03-14T07:02:14;1.33;;;1.30;;
3259;SDS011;22469;48.150;14.004;2023-03-14T07:04:42;1.30;;;1.30;;
3259;SDS011;22469;48.150;14.004;2023-03-14T07:07:09;1.20;;;1.20;;
3259;SDS011;22469;48.150;14.004;2023-03-14T07:09:36;1.23;;;0.93;;
3259;SDS011;22469;48.150;14.004;2023-03-14T07:12:03;1.03;;;1.03;;
3259;SDS011;22469;48.150;14.004;2023-03-14T07:14:30;0.97;;;0.97;;
3259;SDS011;22469;48.150;14.004;2023-03-14T07:16:57;1.60;;;1.50;;
3259;SDS011;22469;48.150;14.004;2023-03-14T07:19:24;2.83;;;1.67;;
3259;SDS011;22469;48.150;14.004;2023-03-14T07:21:51;1.70;;;1.60;;
3259;SDS011;22469;48.150;14.004;2023-03-14T07:24:18;2.00;;;1.90;;
3259;SDS011;22469;48.150;14.004;2023-03-14T07:26:46;2.00;;;1.77;;
3259;SDS011;22469;48.150;14.004;2023-03-14T07:29:13;2.60;;;1.80;;
3259;SDS011;22469;48.150;14.004;2023-03-14T07:31:40;2.10;;;1.90;;
3259;SDS011;22469;48.150;14.004;2023-03-14T07:34:07;2.23;;;2.03;;
3259;SDS011;22469;48.150;14.004;2023-03-14T07:36:34;3.60;;;2.30;;
3259;SDS011;22469;48.150;14.004;2023-03-14T07:39:01;1.87;;;1.77;;
3259;SDS011;22469;48.150;14.004;2023-03-14T07:41:28;1.83;;;1.73;;
3259;SDS011;22469;48.150;14.004;2023-03-14T07:43:55;1.80;;;1.60;;
3259;SDS011;22469;48.150;14.004;2023-03-14T07:46:22;1.40;;;1.30;;
3259;SDS011;22469;48.150;14.004;2023-03-14T07:48:49;1.40;;;1.30;;
3259;SDS011;22469;48.150;14.004;2023-03-14T07:51:16;1.40;;;1.30;;
3259;SDS011;22469;48.150;14.004;2023-03-14T07:53:43;1.27;;;1.17;;
3259;SDS011;22469;48.150;14.004;2023-03-14T07:56:12;1.97;;;1.87;;
3259;SDS011;22469;48.150;14.004;2023-03-14T07:58:40;2.50;;;1.33;;
3259;SDS011;22469;48.150;14.004;2023-03-14T08:01:07;1.40;;;1.30;;
3259;SDS011;22469;48.150;14.004;2023-03-14T08:03:34;1.20;;;1.10;;
3259;SDS011;22469;48.150;14.004;2023-03-14T08:06:01;3.77;;;1.50;;
3259;SDS011;22469;48.150;14.004;2023-03-14T08:08:28;1.63;;;1.50;;
3259;SDS011;22469;48.150;14.004;2023-03-14T08:10:55;1.43;;;1.37;;
3259;SDS011;22469;48.150;14.004;2023-03-14T08:13:22;2.80;;;2.13;;
3259;SDS011;22469;48.150;14.004;2023-03-14T08:15:51;1.60;;;1.50;;
3259;SDS011;22469;48.150;14.004;2023-03-14T08:18:18;2.20;;;1.90;;
3259;SDS011;22469;48.150;14.004;2023-03-14T08:20:45;2.23;;;1.80;;
3259;SDS011;22469;48.150;14.004;2023-03-14T08:23:12;2.23;;;2.03;;
3259;SDS011;22469;48.150;14.004;2023-03-14T08:25:39;4.10;;;2.07;;
3259;SDS011;22469;48.150;14.004;2023-03-14T08:28:07;4.33;;;1.53;;
3259;SDS011;22469;48.150;14.004;2023-03-14T08:30:34;1.73;;;1.63;;
3259;SDS011;22469;48.150;14.004;2023-03-14T08:33:01;1.37;;;1.37;;
3259;SDS011;22469;48.150;14.004;2023-03-14T08:35:28;1.40;;;1.30;;
3259;SDS011;22469;48.150;14.004;2023-03-14T08:37:55;1.47;;;1.37;;
3259;SDS011;22469;48.150;14.004;2023-03-14T08:40:22;1.63;;;1.40;;
3259;SDS011;22469;48.150;14.004;2023-03-14T08:42:50;1.70;;;1.40;;
3259;SDS011;22469;48.150;14.004;2023-03-14T08:45:17;1.67;;;1.57;;
3259;SDS011;22469;48.150;14.004;2023-03-14T08:47:44;1.43;;;1.33;;
3259;SDS011;22469;48.150;14.004;2023-03-14T08:50:12;1.63;;;1.53;;
3259;SDS011;22469;48.150;14.004;2023-03-14T08:52:42;3.20;;;1.97;;
3259;SDS011;22469;48.150;14.004;2023-03-14T08:55:09;2.50;;;2.30;;
3259;SDS011;22469;48.150;14.004;2023-03-14T08:57:37;2.93;;;2.40;;
3259;SDS011;22469;48.150;14.004;2023-03-14T09:00:04;3.50;;;3.20;;
3259;SDS011;22469;48.150;14.004;2023-03-14T09:02:41;2.93;;;2.10;;
3259;SDS011;22469;48.150;14.004;2023-03-14T09:05:10;1.30;;;1.20;;
3259;SDS011;22469;48.150;14.004;2023-03-14T09:07:38;0.90;;;0.90;;
3259;SDS011;22469;48.150;14.004;2023-03-14T09:10:06;1.17;;;1.07;;
3259;SDS011;22469;48.150;14.004;2023-03-14T09:12:35;1.40;;;1.20;;
3259;SDS011;22469;48.150;14.004;2023-03-14T09:15:03;3.47;;;0.90;;
3259;SDS011;22469;48.150;14.004;2023-03-14T09:17:30;1.03;;;0.93;;
3259;SDS011;22469;48.150;14.004;2023-03-14T09:19:57;0.90;;;0.90;;
3259;SDS011;22469;48.150;14.004;2023-03-14T09:22:26;0.93;;;0.93;;
3259;SDS011;22469;48.150;14.004;2023-03-14T09:24:53;0.70;;;0.70;;
3259;SDS011;22469;48.150;14.004;2023-03-14T09:27:20;0.80;;;0.80;;
3259;SDS011;22469;48.150;14.004;2023-03-14T09:29:47;0.80;;;0.80;;
3259;SDS011;22469;48.150;14.004;2023-03-14T09:32:13;2.73;;;1.30;;
3259;SDS011;22469;48.150;14.004;2023-03-14T09:34:40;2.60;;;1.00;;
3259;SDS011;22469;48.150;14.004;2023-03-14T09:37:08;1.30;;;1.13;;
3259;SDS011;22469;48.150;14.004;2023-03-14T09:39:35;1.37;;;1.27;;
3259;SDS011;22469;48.150;14.004;2023-03-14T09:42:03;1.20;;;1.10;;
3259;SDS011;22469;48.150;14.004;2023-03-14T09:44:34;1.70;;;1.60;;
3259;SDS011;22469;48.150;14.004;2023-03-14T09:47:06;2.13;;;1.40;;
3259;SDS011;22469;48.150;14.004;2023-03-14T09:49:41;1.10;;;1.00;;
3259;SDS011;22469;48.150;14.004;2023-03-14T09:52:29;2.15;;;1.85;;
3259;SDS011;22469;48.150;14.004;2023-03-14T09:55:00;4.77;;;1.40;;
3259;SDS011;22469;48.150;14.004;2023-03-14T09:57:32;1.33;;;1.23;;
3259;SDS011;22469;48.150;14.004;2023-03-14T10:00:06;1.20;;;1.20;;
3259;SDS011;22469;48.150;14.004;2023-03-14T10:02:53;1.70;;;1.60;;
3259;SDS011;22469;48.150;14.004;2023-03-14T10:05:24;2.60;;;1.60;;
3259;SDS011;22469;48.150;14.004;2023-03-14T10:07:54;2.50;;;2.10;;
3259;SDS011;22469;48.150;14.004;2023-03-14T10:10:23;3.80;;;2.77;;
3259;SDS011;22469;48.150;14.004;2023-03-14T10:12:56;4.30;;;1.77;;
3259;SDS011;22469;48.150;14.004;2023-03-14T10:15:29;2.30;;;1.20;;
3259;SDS011;22469;48.150;14.004;2023-03-14T10:18:00;1.40;;;1.30;;
3259;SDS011;22469;48.150;14.004;2023-03-14T10:20:31;2.77;;;1.07;;
3259;SDS011;22469;48.150;14.004;2023-03-14T10:25:40;1.00;;;1.00;;
3259;SDS011;22469;48.150;14.004;2023-03-14T10:28:25;0.90;;;0.90;;
3259;SDS011;22469;48.150;14.004;2023-03-14T10:30:54;1.00;;;1.00;;
3259;SDS011;22469;48.150;14.004;2023-03-14T10:33:23;3.03;;;1.20;;
3259;SDS011;22469;48.150;14.004;2023-03-14T10:35:57;1.63;;;1.03;;
3259;SDS011;22469;48.150;14.004;2023-03-14T10:38:28;1.10;;;1.10;;
3259;SDS011;22469;48.150;14.004;2023-03-14T10:41:01;2.10;;;1.30;;
3259;SDS011;22469;48.150;14.004;2023-03-14T10:43:42;1.10;;;1.10;;
3259;SDS011;22469;48.150;14.004;2023-03-14T10:46:16;1.27;;;1.17;;
3259;SDS011;22469;48.150;14.004;2023-03-14T10:48:45;2.13;;;1.20;;
3259;SDS011;22469;48.150;14.004;2023-03-14T10:51:25;3.33;;;1.70;;
3259;SDS011;22469;48.150;14.004;2023-03-14T10:53:59;2.27;;;2.17;;
3259;SDS011;22469;48.150;14.004;2023-03-14T10:56:35;3.50;;;1.40;;
3259;SDS011;22469;48.150;14.004;2023-03-14T10:59:06;1.53;;;1.43;;
3259;SDS011;22469;48.150;14.004;2023-03-14T11:04:33;1.23;;;0.83;;
3259;SDS011;22469;48.150;14.004;2023-03-14T11:10:10;1.20;;;1.10;;
3259;SDS011;22469;48.150;14.004;2023-03-14T11:16:13;1.80;;;0.90;;
3259;SDS011;22469;48.150;14.004;2023-03-14T11:19:16;0.90;;;0.90;;
3259;SDS011;22469;48.150;14.004;2023-03-14T11:22:14;3.70;;;1.10;;
3259;SDS011;22469;48.150;14.004;2023-03-14T11:28:27;1.07;;;1.07;;
3259;SDS011;22469;48.150;14.004;2023-03-14T11:34:01;0.80;;;0.80;;
3259;SDS011;22469;48.150;14.004;2023-03-14T11:36:59;0.80;;;0.80;;
3259;SDS011;22469;48.150;14.004;2023-03-14T11:42:47;1.03;;;0.80;;
3259;SDS011;22469;48.150;14.004;2023-03-14T11:45:47;1.27;;;1.00;;
3259;SDS011;22469;48.150;14.004;2023-03-14T11:51:11;0.70;;;0.70;;
3259;SDS011;22469;48.150;14.004;2023-03-14T11:53:59;1.37;;;0.90;;
3259;SDS011;22469;48.150;14.004;2023-03-14T11:59:05;0.70;;;0.70;;
3259;SDS011;22469;48.150;14.004;2023-03-14T12:04:28;0.77;;;0.77;;
3259;SDS011;22469;48.150;14.004;2023-03-14T12:07:51;0.70;;;0.70;;
3259;SDS011;22469;48.150;14.004;2023-03-14T12:10:39;0.97;;;0.97;;
3259;SDS011;22469;48.150;14.004;2023-03-14T12:13:21;0.80;;;0.80;;
3259;SDS011;22469;48.150;14.004;2023-03-14T12:15:49;0.83;;;0.83;;
3259;SDS011;22469;48.150;14.004;2023-03-14T12:18:28;1.23;;;1.03;;
3259;SDS011;22469;48.150;14.004;2023-03-14T12:21:02;1.00;;;0.90;;
3259;SDS011;22469;48.150;14.004;2023-03-14T12:23:37;1.03;;;1.03;;
3259;SDS011;22469;48.150;14.004;2023-03-14T12:26:21;0.90;;;0.90;;
3259;SDS011;22469;48.150;14.004;2023-03-14T12:42:12;0.90;;;0.90;;
3259;SDS011;22469;48.150;14.004;2023-03-14T12:48:23;1.43;;;0.90;;
3259;SDS011;22469;48.150;14.004;2023-03-14T12:53:43;0.80;;;0.80;;
3259;SDS011;22469;48.150;14.004;2023-03-14T13:07:30;1.00;;;0.87;;
3259;SDS011;22469;48.150;14.004;2023-03-14T13:13:20;1.13;;;1.13;;
3259;SDS011;22469;48.150;14.004;2023-03-14T13:15:47;1.00;;;1.00;;
3259;SDS011;22469;48.150;14.004;2023-03-14T13:18:23;0.93;;;0.93;;
3259;SDS011;22469;48.150;14.004;2023-03-14T13:21:05;1.17;;;1.17;;
3259;SDS011;22469;48.150;14.004;2023-03-14T13:23:37;1.87;;;1.00;;
3259;SDS011;22469;48.150;14.004;2023-03-14T13:26:10;0.93;;;0.93;;
3259;SDS011;22469;48.150;14.004;2023-03-14T13:28:41;1.00;;;0.90;;
3259;SDS011;22469;48.150;14.004;2023-03-14T13:31:22;0.87;;;0.87;;
3259;SDS011;22469;48.150;14.004;2023-03-14T13:34:00;0.80;;;0.80;;
3259;SDS011;22469;48.150;14.004;2023-03-14T13:36:31;2.20;;;0.70;;
3259;SDS011;22469;48.150;14.004;2023-03-14T13:39:03;0.90;;;0.90;;
3259;SDS011;22469;48.150;14.004;2023-03-14T13:41:40;0.70;;;0.70;;
3259;SDS011;22469;48.150;14.004;2023-03-14T13:44:13;1.03;;;0.90;;
3259;SDS011;22469;48.150;14.004;2023-03-14T13:47:01;1.30;;;1.20;;
3259;SDS011;22469;48.150;14.004;2023-03-14T13:49:32;0.90;;;0.90;;
3259;SDS011;22469;48.150;14.004;2023-03-14T13:52:02;4.50;;;1.30;;
3259;SDS011;22469;48.150;14.004;2023-03-14T13:54:46;0.80;;;0.80;;
3259;SDS011;22469;48.150;14.004;2023-03-14T13:57:13;1.00;;;1.00;;
3259;SDS011;22469;48.150;14.004;2023-03-14T13:59:40;0.70;;;0.70;;
3259;SDS011;22469;48.150;14.004;2023-03-14T14:02:13;0.60;;;0.60;;
3259;SDS011;22469;48.150;14.004;2023-03-14T14:04:44;0.87;;;0.87;;
3259;SDS011;22469;48.150;14.004;2023-03-14T14:07:13;0.90;;;0.73;;
3259;SDS011;22469;48.150;14.004;2023-03-14T14:09:46;0.93;;;0.93;;
3259;SDS011;22469;48.150;14.004;2023-03-14T14:12:21;1.10;;;1.10;;
3259;SDS011;22469;48.150;14.004;2023-03-14T14:17:31;0.90;;;0.90;;
3259;SDS011;22469;48.150;14.004;2023-03-14T14:20:02;0.73;;;0.73;;
3259;SDS011;22469;48.150;14.004;2023-03-14T14:22:33;0.90;;;0.90;;
3259;SDS011;22469;48.150;14.004;2023-03-14T14:25:01;1.23;;;1.23;;
3259;SDS011;22469;48.150;14.004;2023-03-14T14:27:37;1.03;;;0.93;;
3259;SDS011;22469;48.150;14.004;2023-03-14T14:30:24;0.60;;;0.60;;
3259;SDS011;22469;48.150;14.004;2023-03-14T14:33:09;0.80;;;0.80;;
3259;SDS011;22469;48.150;14.004;2023-03-14T14:35:39;0.80;;;0.80;;
3259;SDS011;22469;48.150;14.004;2023-03-14T14:38:12;0.80;;;0.80;;
3259;SDS011;22469;48.150;14.004;2023-03-14T14:40:44;1.50;;;1.50;;
3259;SDS011;22469;48.150;14.004;2023-03-14T14:43:19;1.07;;;1.07;;
3259;SDS011;22469;48.150;14.004;2023-03-14T14:45:54;0.83;;;0.83;;
3259;SDS011;22469;48.150;14.004;2023-03-14T14:48:24;0.90;;;0.90;;
3259;SDS011;22469;48.150;14.004;2023-03-14T14:55:59;1.30;;;1.30;;
3259;SDS011;22469;48.150;14.004;2023-03-14T14:58:57;1.27;;;1.27;;
3259;SDS011;22469;48.150;14.004;2023-03-14T15:01:32;3.17;;;2.97;;
3259;SDS011;22469;48.150;14.004;2023-03-14T15:04:12;2.00;;;1.90;;
3259;SDS011;22469;48.150;14.004;2023-03-14T15:06:45;1.30;;;1.20;;
3259;SDS011;22469;48.150;14.004;2023-03-14T15:09:15;1.70;;;1.60;;
3259;SDS011;22469;48.150;14.004;2023-03-14T15:11:44;1.00;;;1.00;;
3259;SDS011;22469;48.150;14.004;2023-03-14T15:14:11;1.57;;;1.57;;
3259;SDS011;22469;48.150;14.004;2023-03-14T15:16:39;1.23;;;1.23;;
3259;SDS011;22469;48.150;14.004;2023-03-14T15:19:20;0.97;;;0.97;;
3259;SDS011;22469;48.150;14.004;2023-03-14T15:21:52;1.50;;;1.40;;
3259;SDS011;22469;48.150;14.004;2023-03-14T15:24:20;1.40;;;1.30;;
3259;SDS011;22469;48.150;14.004;2023-03-14T15:26:48;1.47;;;1.40;;
3259;SDS011;22469;48.150;14.004;2023-03-14T15:29:16;1.50;;;1.40;;
3259;SDS011;22469;48.150;14.004;2023-03-14T15:31:43;1.27;;;1.17;;
3259;SDS011;22469;48.150;14.004;2023-03-14T15:34:10;1.50;;;1.40;;
3259;SDS011;22469;48.150;14.004;2023-03-14T15:36:37;2.40;;;1.20;;
3259;SDS011;22469;48.150;14.004;2023-03-14T15:39:05;1.07;;;1.07;;
3259;SDS011;22469;48.150;14.004;2023-03-14T15:41:33;1.37;;;1.27;;
3259;SDS011;22469;48.150;14.004;2023-03-14T15:44:00;1.50;;;1.40;;
3259;SDS011;22469;48.150;14.004;2023-03-14T15:46:28;1.33;;;1.23;;
3259;SDS011;22469;48.150;14.004;2023-03-14T15:48:56;1.13;;;1.13;;
3259;SDS011;22469;48.150;14.004;2023-03-14T15:51:23;1.30;;;1.20;;
3259;SDS011;22469;48.150;14.004;2023-03-14T15:53:50;1.10;;;1.10;;
3259;SDS011;22469;48.150;14.004;2023-03-14T15:56:19;1.43;;;1.30;;
3259;SDS011;22469;48.150;14.004;2023-03-14T15:58:50;1.23;;;1.20;;
3259;SDS011;22469;48.150;14.004;2023-03-14T16:01:17;1.30;;;1.20;;
3259;SDS011;22469;48.150;14.004;2023-03-14T16:03:46;2.43;;;2.30;;
3259;SDS011;22469;48.150;14.004;2023-03-14T16:06:14;6.30;;;5.70;;
3259;SDS011;22469;48.150;14.004;2023-03-14T16:08:41;2.87;;;1.33;;
3259;SDS011;22469;48.150;14.004;2023-03-14T16:11:09;1.73;;;1.63;;
3259;SDS011;22469;48.150;14.004;2023-03-14T16:13:38;1.30;;;1.30;;
3259;SDS011;22469;48.150;14.004;2023-03-14T16:16:06;1.27;;;1.27;;
3259;SDS011;22469;48.150;14.004;2023-03-14T16:18:41;2.50;;;2.17;;
3259;SDS011;22469;48.150;14.004;2023-03-14T16:21:15;2.50;;;2.30;;
3259;SDS011;22469;48.150;14.004;2023-03-14T16:23:44;6.70;;;6.20;;
3259;SDS011;22469;48.150;14.004;2023-03-14T16:26:16;4.07;;;3.83;;